sensor_id;sensor_type;location;lat;lon;timestamp;pressure;altitude;pressure_sealevel;temperature;humidity
71107;BME280;58763;47.982;11.516;2022-09-12T00:02:15;94382.44;;;11.10;81.44
71107;BME280;58763;47.982;11.516;2022-09-12T00:04:41;94379.19;;;11.13;81.64
71107;BME280;58763;47.982;11.516;2022-09-12T00:07:06;94378.84;;;11.20;81.62
71107;BME280;58763;47.982;11.516;2022-09-12T00:09:32;94379.81;;;11.34;81.55
71107;BME280;58763;47.982;11.516;2022-09-12T00:11:58;94373.03;;;11.36;81.57
71107;BME280;58763;47.982;11.516;2022-09-12T00:14:23;94376.81;;;11.35;81.57
71107;BME280;58763;47.982;11.516;2022-09-12T00:16:48;94375.09;;;11.44;81.14
71107;BME280;58763;47.982;11.516;2022-09-12T00:19:14;94372.81;;;11.56;80.53
71107;BME280;58763;47.982;11.516;2022-09-12T00:21:40;94372.81;;;11.56;79.71
71107;BME280;58763;47.982;11.516;2022-09-12T00:24:06;94374.09;;;11.64;79.41
71107;BME280;58763;47.982;11.516;2022-09-12T00:26:31;94369.47;;;11.64;78.85
71107;BME280;58763;47.982;11.516;2022-09-12T00:28:57;94367.69;;;11.55;78.58
71107;BME280;58763;47.982;11.516;2022-09-12T00:31:24;94368.59;;;11.45;79.15
71107;BME280;58763;47.982;11.516;2022-09-12T00:33:52;94372.75;;;11.61;78.80
71107;BME280;58763;47.982;11.516;2022-09-12T00:36:21;94369.19;;;11.66;78.10
71107;BME280;58763;47.982;11.516;2022-09-12T00:38:48;94374.34;;;11.62;78.46
71107;BME280;58763;47.982;11.516;2022-09-12T00:41:39;94368.22;;;11.57;78.66
71107;BME280;58763;47.982;11.516;2022-09-12T00:46:43;94362.66;;;11.43;78.67
71107;BME280;58763;47.982;11.516;2022-09-12T00:49:18;94355.31;;;11.44;78.62
71107;BME280;58763;47.982;11.516;2022-09-12T00:52:11;94352.16;;;11.37;78.89
71107;BME280;58763;47.982;11.516;2022-09-12T00:57:13;94345.13;;;11.36;79.34
71107;BME280;58763;47.982;11.516;2022-09-12T00:59:43;94345.34;;;11.39;79.42
71107;BME280;58763;47.982;11.516;2022-09-12T01:02:11;94344.31;;;11.35;79.61
71107;BME280;58763;47.982;11.516;2022-09-12T01:04:37;94336.53;;;11.29;79.30
71107;BME280;58763;47.982;11.516;2022-09-12T01:07:05;94333.03;;;11.28;79.70
71107;BME280;58763;47.982;11.516;2022-09-12T01:09:31;94339.94;;;11.39;79.13
71107;BME280;58763;47.982;11.516;2022-09-12T01:11:56;94331.34;;;11.32;79.56
71107;BME280;58763;47.982;11.516;2022-09-12T01:14:22;94336.50;;;11.34;79.19
71107;BME280;58763;47.982;11.516;2022-09-12T01:16:48;94332.50;;;11.26;79.36
71107;BME280;58763;47.982;11.516;2022-09-12T01:30:50;94318.09;;;11.02;80.52
71107;BME280;58763;47.982;11.516;2022-09-12T01:38:49;94309.44;;;11.05;81.06
71107;BME280;58763;47.982;11.516;2022-09-12T01:44:13;94306.03;;;11.18;80.07
71107;BME280;58763;47.982;11.516;2022-09-12T01:46:58;94309.75;;;11.27;79.52
71107;BME280;58763;47.982;11.516;2022-09-12T01:52:42;94306.00;;;11.23;78.95
71107;BME280;58763;47.982;11.516;2022-09-12T01:55:19;94303.94;;;11.15;79.21
71107;BME280;58763;47.982;11.516;2022-09-12T01:57:57;94297.53;;;11.06;79.26
71107;BME280;58763;47.982;11.516;2022-09-12T02:00:24;94301.09;;;11.01;79.28
71107;BME280;58763;47.982;11.516;2022-09-12T02:03:03;94301.88;;;11.02;79.40
71107;BME280;58763;47.982;11.516;2022-09-12T02:05:35;94297.91;;;10.94;79.69
71107;BME280;58763;47.982;11.516;2022-09-12T02:10:49;94284.69;;;10.88;79.61
71107;BME280;58763;47.982;11.516;2022-09-12T02:13:20;94292.19;;;10.96;79.61
71107;BME280;58763;47.982;11.516;2022-09-12T02:16:05;94286.34;;;10.84;79.87
71107;BME280;58763;47.982;11.516;2022-09-12T02:18:32;94277.22;;;10.80;80.11
71107;BME280;58763;47.982;11.516;2022-09-12T02:21:00;94275.56;;;10.79;79.95
71107;BME280;58763;47.982;11.516;2022-09-12T02:23:28;94276.94;;;10.76;79.89
71107;BME280;58763;47.982;11.516;2022-09-12T02:25:59;94274.72;;;10.83;79.96
71107;BME280;58763;47.982;11.516;2022-09-12T02:28:31;94275.50;;;10.89;79.77
71107;BME280;58763;47.982;11.516;2022-09-12T02:39:18;94276.31;;;10.89;79.16
71107;BME280;58763;47.982;11.516;2022-09-12T02:41:54;94270.56;;;10.96;78.28
71107;BME280;58763;47.982;11.516;2022-09-12T02:44:23;94270.97;;;10.79;79.03
71107;BME280;58763;47.982;11.516;2022-09-12T02:46:53;94263.69;;;10.80;79.07
71107;BME280;58763;47.982;11.516;2022-09-12T02:49:19;94270.69;;;10.81;78.87
71107;BME280;58763;47.982;11.516;2022-09-12T02:51:46;94270.78;;;10.71;79.37
71107;BME280;58763;47.982;11.516;2022-09-12T02:54:14;94266.53;;;10.60;79.89
71107;BME280;58763;47.982;11.516;2022-09-12T02:56:42;94267.91;;;10.57;80.25
71107;BME280;58763;47.982;11.516;2022-09-12T02:59:09;94268.41;;;10.64;80.17
71107;BME280;58763;47.982;11.516;2022-09-12T03:02:03;94264.97;;;10.54;80.46
71107;BME280;58763;47.982;11.516;2022-09-12T03:10:23;94263.66;;;10.51;80.60
71107;BME280;58763;47.982;11.516;2022-09-12T03:21:01;94254.66;;;10.61;79.75
71107;BME280;58763;47.982;11.516;2022-09-12T03:26:27;94259.66;;;10.43;79.66
71107;BME280;58763;47.982;11.516;2022-09-12T03:28:56;94257.56;;;10.35;80.08
71107;BME280;58763;47.982;11.516;2022-09-12T03:31:23;94253.25;;;10.34;80.33
71107;BME280;58763;47.982;11.516;2022-09-12T03:33:49;94252.16;;;10.35;80.52
71107;BME280;58763;47.982;11.516;2022-09-12T03:36:19;94255.88;;;10.45;80.52
71107;BME280;58763;47.982;11.516;2022-09-12T03:38:46;94251.53;;;10.43;80.31
71107;BME280;58763;47.982;11.516;2022-09-12T03:41:12;94253.16;;;10.45;80.37
71107;BME280;58763;47.982;11.516;2022-09-12T03:43:37;94252.16;;;10.35;80.32
71107;BME280;58763;47.982;11.516;2022-09-12T03:46:03;94247.00;;;10.34;80.66
71107;BME280;58763;47.982;11.516;2022-09-12T03:48:29;94243.56;;;10.28;80.81
71107;BME280;58763;47.982;11.516;2022-09-12T03:51:05;94238.13;;;10.33;80.56
71107;BME280;58763;47.982;11.516;2022-09-12T03:53:32;94252.16;;;10.35;80.44
71107;BME280;58763;47.982;11.516;2022-09-12T03:55:57;94252.13;;;10.40;80.08
71107;BME280;58763;47.982;11.516;2022-09-12T03:58:23;94248.06;;;10.43;79.90
71107;BME280;58763;47.982;11.516;2022-09-12T04:00:49;94251.28;;;10.45;79.73
71107;BME280;58763;47.982;11.516;2022-09-12T04:03:15;94251.25;;;10.50;79.41
71107;BME280;58763;47.982;11.516;2022-09-12T04:05:41;94255.25;;;10.53;78.92
71107;BME280;58763;47.982;11.516;2022-09-12T04:08:06;94255.06;;;10.44;78.95
71107;BME280;58763;47.982;11.516;2022-09-12T04:10:32;94257.78;;;10.39;78.43
71107;BME280;58763;47.982;11.516;2022-09-12T04:12:57;94260.00;;;10.32;78.63
71107;BME280;58763;47.982;11.516;2022-09-12T04:15:23;94258.13;;;10.32;78.38
71107;BME280;58763;47.982;11.516;2022-09-12T04:17:48;94255.34;;;10.43;78.46
71107;BME280;58763;47.982;11.516;2022-09-12T04:20:14;94259.38;;;10.45;78.60
71107;BME280;58763;47.982;11.516;2022-09-12T04:22:39;94261.31;;;10.39;78.21
71107;BME280;58763;47.982;11.516;2022-09-12T04:25:05;94256.59;;;10.21;78.93
71107;BME280;58763;47.982;11.516;2022-09-12T04:27:31;94255.56;;;10.12;79.41
71107;BME280;58763;47.982;11.516;2022-09-12T04:29:57;94262.06;;;10.06;79.91
71107;BME280;58763;47.982;11.516;2022-09-12T04:32:24;94259.94;;;10.03;80.09
71107;BME280;58763;47.982;11.516;2022-09-12T04:34:49;94253.97;;;10.01;79.98
71107;BME280;58763;47.982;11.516;2022-09-12T04:37:17;94257.16;;;10.08;79.45
71107;BME280;58763;47.982;11.516;2022-09-12T04:39:42;94258.78;;;10.09;79.60
71107;BME280;58763;47.982;11.516;2022-09-12T04:42:08;94252.88;;;10.12;79.21
71107;BME280;58763;47.982;11.516;2022-09-12T04:44:33;94247.47;;;10.12;79.29
71107;BME280;58763;47.982;11.516;2022-09-12T04:46:59;94256.34;;;10.13;78.98
71107;BME280;58763;47.982;11.516;2022-09-12T04:49:24;94242.59;;;10.09;79.20
71107;BME280;58763;47.982;11.516;2022-09-12T04:51:51;94250.94;;;10.13;79.06
71107;BME280;58763;47.982;11.516;2022-09-12T04:54:18;94251.78;;;10.13;78.97
71107;BME280;58763;47.982;11.516;2022-09-12T04:56:47;94246.63;;;10.17;79.40
71107;BME280;58763;47.982;11.516;2022-09-12T04:59:14;94261.47;;;10.19;79.15
71107;BME280;58763;47.982;11.516;2022-09-12T05:01:41;94255.22;;;10.24;79.12
71107;BME280;58763;47.982;11.516;2022-09-12T05:04:09;94256.56;;;10.26;79.15
71107;BME280;58763;47.982;11.516;2022-09-12T05:06:36;94259.22;;;10.31;78.93
71107;BME280;58763;47.982;11.516;2022-09-12T05:09:04;94259.81;;;10.23;79.02
71107;BME280;58763;47.982;11.516;2022-09-12T05:11:32;94261.63;;;10.33;78.60
71107;BME280;58763;47.982;11.516;2022-09-12T05:13:58;94255.94;;;10.34;78.53
71107;BME280;58763;47.982;11.516;2022-09-12T05:16:25;94261.34;;;10.34;78.66
71107;BME280;58763;47.982;11.516;2022-09-12T05:18:51;94262.00;;;10.21;79.11
71107;BME280;58763;47.982;11.516;2022-09-12T05:21:20;94256.59;;;10.21;79.73
71107;BME280;58763;47.982;11.516;2022-09-12T05:23:50;94256.59;;;10.21;80.33
71107;BME280;58763;47.982;11.516;2022-09-12T05:26:15;94263.38;;;10.14;80.72
71107;BME280;58763;47.982;11.516;2022-09-12T05:28:41;94266.91;;;10.14;80.84
71107;BME280;58763;47.982;11.516;2022-09-12T05:31:11;94265.00;;;10.10;81.26
71107;BME280;58763;47.982;11.516;2022-09-12T05:33:38;94269.59;;;10.09;81.70
71107;BME280;58763;47.982;11.516;2022-09-12T05:36:06;94267.13;;;10.18;81.96
71107;BME280;58763;47.982;11.516;2022-09-12T05:38:36;94271.16;;;10.25;81.72
71107;BME280;58763;47.982;11.516;2022-09-12T05:41:12;94271.63;;;10.32;81.55
71107;BME280;58763;47.982;11.516;2022-09-12T05:43:39;94271.59;;;10.37;81.49
71107;BME280;58763;47.982;11.516;2022-09-12T05:46:08;94282.06;;;10.49;81.16
71107;BME280;58763;47.982;11.516;2022-09-12T05:48:39;94273.81;;;10.64;81.05
71107;BME280;58763;47.982;11.516;2022-09-12T05:51:10;94271.84;;;10.75;80.56
71107;BME280;58763;47.982;11.516;2022-09-12T05:53:37;94270.28;;;10.69;81.44
71107;BME280;58763;47.982;11.516;2022-09-12T05:58:29;94279.16;;;10.40;83.06
71107;BME280;58763;47.982;11.516;2022-09-12T06:00:54;94282.13;;;10.39;83.49
71107;BME280;58763;47.982;11.516;2022-09-12T06:03:21;94280.69;;;10.52;83.10
71107;BME280;58763;47.982;11.516;2022-09-12T06:05:47;94271.09;;;10.64;82.92
71107;BME280;58763;47.982;11.516;2022-09-12T06:08:12;94274.34;;;10.66;83.08
71107;BME280;58763;47.982;11.516;2022-09-12T06:10:38;94272.97;;;10.69;83.27
71107;BME280;58763;47.982;11.516;2022-09-12T06:13:03;94273.25;;;10.67;83.50
71107;BME280;58763;47.982;11.516;2022-09-12T06:15:29;94267.19;;;10.80;82.81
71107;BME280;58763;47.982;11.516;2022-09-12T06:17:54;94278.53;;;10.82;83.17
71107;BME280;58763;47.982;11.516;2022-09-12T06:20:19;94267.69;;;10.87;83.41
71107;BME280;58763;47.982;11.516;2022-09-12T06:22:45;94270.47;;;11.06;82.93
71107;BME280;58763;47.982;11.516;2022-09-12T06:25:12;94273.91;;;11.11;82.57
71107;BME280;58763;47.982;11.516;2022-09-12T06:27:38;94280.81;;;11.23;82.56
71107;BME280;58763;47.982;11.516;2022-09-12T06:30:04;94272.38;;;11.29;82.05
71107;BME280;58763;47.982;11.516;2022-09-12T06:32:31;94277.50;;;11.31;82.23
71107;BME280;58763;47.982;11.516;2022-09-12T06:34:57;94276.06;;;11.38;81.96
71107;BME280;58763;47.982;11.516;2022-09-12T06:37:22;94280.38;;;11.39;81.55
71107;BME280;58763;47.982;11.516;2022-09-12T06:39:48;94279.59;;;11.39;82.03
71107;BME280;58763;47.982;11.516;2022-09-12T06:42:16;94269.31;;;11.36;81.18
71107;BME280;58763;47.982;11.516;2022-09-12T06:44:44;94275.47;;;11.41;81.21
71107;BME280;58763;47.982;11.516;2022-09-12T06:47:09;94273.81;;;11.45;81.56
71107;BME280;58763;47.982;11.516;2022-09-12T06:49:36;94280.78;;;11.51;81.56
71107;BME280;58763;47.982;11.516;2022-09-12T06:52:01;94278.59;;;11.53;81.50
71107;BME280;58763;47.982;11.516;2022-09-12T06:54:27;94292.88;;;11.59;80.97
71107;BME280;58763;47.982;11.516;2022-09-12T06:56:52;94285.47;;;11.69;81.97
71107;BME280;58763;47.982;11.516;2022-09-12T06:59:18;94278.41;;;11.73;80.50
71107;BME280;58763;47.982;11.516;2022-09-12T07:01:44;94280.94;;;11.84;81.00
71107;BME280;58763;47.982;11.516;2022-09-12T07:04:10;94277.59;;;11.92;81.86
71107;BME280;58763;47.982;11.516;2022-09-12T07:06:38;94281.03;;;11.97;79.50
71107;BME280;58763;47.982;11.516;2022-09-12T07:09:05;94280.97;;;12.02;80.02
71107;BME280;58763;47.982;11.516;2022-09-12T07:11:33;94285.97;;;12.14;78.75
71107;BME280;58763;47.982;11.516;2022-09-12T07:14:02;94284.44;;;12.26;79.79
71107;BME280;58763;47.982;11.516;2022-09-12T07:16:28;94279.94;;;12.54;80.13
71107;BME280;58763;47.982;11.516;2022-09-12T07:18:56;94276.25;;;12.82;77.92
71107;BME280;58763;47.982;11.516;2022-09-12T07:21:22;94274.78;;;13.03;78.83
71107;BME280;58763;47.982;11.516;2022-09-12T07:23:48;94278.00;;;13.51;78.51
71107;BME280;58763;47.982;11.516;2022-09-12T07:26:14;94280.81;;;13.87;75.24
71107;BME280;58763;47.982;11.516;2022-09-12T07:28:41;94279.78;;;14.37;73.86
71107;BME280;58763;47.982;11.516;2022-09-12T07:33:34;94272.28;;;15.32;70.78
71107;BME280;58763;47.982;11.516;2022-09-12T07:36:04;94274.09;;;15.75;69.83
71107;BME280;58763;47.982;11.516;2022-09-12T07:38:31;94274.72;;;16.20;69.22
71107;BME280;58763;47.982;11.516;2022-09-12T07:40:56;94282.06;;;16.59;66.70
71107;BME280;58763;47.982;11.516;2022-09-12T07:43:23;94285.28;;;16.87;65.92
71107;BME280;58763;47.982;11.516;2022-09-12T07:45:54;94276.06;;;17.25;64.79
71107;BME280;58763;47.982;11.516;2022-09-12T07:48:19;94281.66;;;17.55;62.99
71107;BME280;58763;47.982;11.516;2022-09-12T07:50:46;94278.13;;;17.92;62.87
71107;BME280;58763;47.982;11.516;2022-09-12T07:53:11;94281.06;;;18.16;62.32
71107;BME280;58763;47.982;11.516;2022-09-12T07:55:37;94292.31;;;18.44;61.28
71107;BME280;58763;47.982;11.516;2022-09-12T07:58:03;94292.34;;;18.73;60.63
71107;BME280;58763;47.982;11.516;2022-09-12T08:00:28;94286.72;;;18.70;58.86
71107;BME280;58763;47.982;11.516;2022-09-12T08:03:00;94289.19;;;19.04;58.97
71107;BME280;58763;47.982;11.516;2022-09-12T08:05:27;94284.91;;;19.15;55.49
71107;BME280;58763;47.982;11.516;2022-09-12T08:07:54;94285.03;;;19.39;56.85
71107;BME280;58763;47.982;11.516;2022-09-12T08:10:19;94291.03;;;19.65;54.89
71107;BME280;58763;47.982;11.516;2022-09-12T08:12:45;94283.03;;;19.72;54.82
71107;BME280;58763;47.982;11.516;2022-09-12T08:15:10;94286.13;;;19.71;53.97
71107;BME280;58763;47.982;11.516;2022-09-12T08:17:36;94287.75;;;19.84;55.40
71107;BME280;58763;47.982;11.516;2022-09-12T08:20:02;94288.69;;;20.00;55.26
71107;BME280;58763;47.982;11.516;2022-09-12T08:22:29;94281.16;;;20.21;55.26
71107;BME280;58763;47.982;11.516;2022-09-12T08:24:55;94278.97;;;20.15;55.10
71107;BME280;58763;47.982;11.516;2022-09-12T08:27:21;94285.63;;;20.14;54.94
71107;BME280;58763;47.982;11.516;2022-09-12T08:29:46;94295.38;;;20.35;54.86
71107;BME280;58763;47.982;11.516;2022-09-12T08:32:12;94283.34;;;20.40;54.83
71107;BME280;58763;47.982;11.516;2022-09-12T08:34:37;94292.97;;;20.34;54.94
71107;BME280;58763;47.982;11.516;2022-09-12T08:37:03;94287.78;;;20.08;54.67
71107;BME280;58763;47.982;11.516;2022-09-12T08:39:28;94291.91;;;20.14;56.62
71107;BME280;58763;47.982;11.516;2022-09-12T08:42:00;94286.31;;;20.11;55.83
71107;BME280;58763;47.982;11.516;2022-09-12T08:47:45;94284.91;;;19.80;54.98
71107;BME280;58763;47.982;11.516;2022-09-12T08:50:19;94282.53;;;20.03;55.55
71107;BME280;58763;47.982;11.516;2022-09-12T08:57:56;94279.44;;;20.17;53.74
71107;BME280;58763;47.982;11.516;2022-09-12T09:00:28;94287.16;;;20.23;53.64
71107;BME280;58763;47.982;11.516;2022-09-12T09:03:07;94284.72;;;20.22;55.15
71107;BME280;58763;47.982;11.516;2022-09-12T09:05:50;94279.00;;;20.27;55.08
71107;BME280;58763;47.982;11.516;2022-09-12T09:11:37;94273.16;;;20.16;53.75
71107;BME280;58763;47.982;11.516;2022-09-12T09:19:48;94266.06;;;20.15;52.11
71107;BME280;58763;47.982;11.516;2022-09-12T09:22:33;94270.53;;;20.20;53.24
71107;BME280;58763;47.982;11.516;2022-09-12T09:25:05;94260.47;;;20.36;54.04
71107;BME280;58763;47.982;11.516;2022-09-12T09:27:45;94262.75;;;20.58;55.28
71107;BME280;58763;47.982;11.516;2022-09-12T09:30:15;94257.81;;;20.63;52.01
71107;BME280;58763;47.982;11.516;2022-09-12T09:32:44;94262.53;;;20.63;52.90
71107;BME280;58763;47.982;11.516;2022-09-12T09:37:53;94255.91;;;20.92;50.49
71107;BME280;58763;47.982;11.516;2022-09-12T09:40:32;94258.06;;;20.98;51.25
71107;BME280;58763;47.982;11.516;2022-09-12T09:45:36;94259.78;;;20.63;49.07
71107;BME280;58763;47.982;11.516;2022-09-12T09:50:37;94259.31;;;21.01;47.83
71107;BME280;58763;47.982;11.516;2022-09-12T09:53:03;94253.44;;;21.14;48.62
71107;BME280;58763;47.982;11.516;2022-09-12T09:55:36;94255.66;;;21.37;47.69
71107;BME280;58763;47.982;11.516;2022-09-12T09:58:03;94259.03;;;21.46;46.64
71107;BME280;58763;47.982;11.516;2022-09-12T10:00:37;94259.44;;;21.60;46.12
71107;BME280;58763;47.982;11.516;2022-09-12T10:06:01;94256.59;;;21.72;49.21
71107;BME280;58763;47.982;11.516;2022-09-12T10:08:33;94255.00;;;21.71;46.93
71107;BME280;58763;47.982;11.516;2022-09-12T10:11:18;94250.09;;;21.49;45.92
71107;BME280;58763;47.982;11.516;2022-09-12T10:13:52;94252.31;;;21.59;47.25
71107;BME280;58763;47.982;11.516;2022-09-12T10:16:26;94253.03;;;21.56;46.91
71107;BME280;58763;47.982;11.516;2022-09-12T10:18:54;94249.50;;;21.71;46.40
71107;BME280;58763;47.982;11.516;2022-09-12T10:26:32;94243.88;;;22.26;46.28
71107;BME280;58763;47.982;11.516;2022-09-12T10:29:03;94244.97;;;22.41;46.60
71107;BME280;58763;47.982;11.516;2022-09-12T10:31:51;94239.63;;;22.48;45.27
71107;BME280;58763;47.982;11.516;2022-09-12T10:34:27;94236.09;;;22.47;44.73
71107;BME280;58763;47.982;11.516;2022-09-12T10:37:01;94227.50;;;22.33;45.32
71107;BME280;58763;47.982;11.516;2022-09-12T10:39:27;94238.88;;;22.47;44.27
71107;BME280;58763;47.982;11.516;2022-09-12T10:41:53;94231.38;;;22.63;43.89
71107;BME280;58763;47.982;11.516;2022-09-12T10:44:28;94237.38;;;22.85;44.49
71107;BME280;58763;47.982;11.516;2022-09-12T10:46:55;94236.72;;;22.56;42.85
71107;BME280;58763;47.982;11.516;2022-09-12T10:49:31;94233.13;;;22.72;43.73
71107;BME280;58763;47.982;11.516;2022-09-12T10:55:00;94230.81;;;22.58;43.68
71107;BME280;58763;47.982;11.516;2022-09-12T10:57:32;94221.09;;;22.80;43.65
71107;BME280;58763;47.982;11.516;2022-09-12T11:03:14;94214.00;;;22.98;43.01
71107;BME280;58763;47.982;11.516;2022-09-12T11:05:57;94215.09;;;23.12;42.79
71107;BME280;58763;47.982;11.516;2022-09-12T11:16:54;94214.81;;;23.36;42.85
71107;BME280;58763;47.982;11.516;2022-09-12T11:25:16;94220.31;;;23.56;42.34
71107;BME280;58763;47.982;11.516;2022-09-12T11:28:15;94216.31;;;23.53;41.68
71107;BME280;58763;47.982;11.516;2022-09-12T11:33:42;94215.13;;;23.73;40.58
71107;BME280;58763;47.982;11.516;2022-09-12T11:36:15;94211.59;;;23.76;39.78
71107;BME280;58763;47.982;11.516;2022-09-12T11:39:02;94207.31;;;23.56;40.15
71107;BME280;58763;47.982;11.516;2022-09-12T11:41:35;94210.25;;;23.67;37.81
71107;BME280;58763;47.982;11.516;2022-09-12T11:44:14;94205.28;;;23.76;39.84
71107;BME280;58763;47.982;11.516;2022-09-12T11:46:42;94198.34;;;23.85;40.80
71107;BME280;58763;47.982;11.516;2022-09-12T11:51:40;94204.13;;;23.99;38.72
71107;BME280;58763;47.982;11.516;2022-09-12T11:56:45;94198.25;;;24.01;38.32
71107;BME280;58763;47.982;11.516;2022-09-12T11:59:34;94194.63;;;24.20;39.97
71107;BME280;58763;47.982;11.516;2022-09-12T12:02:11;94192.91;;;24.12;39.30
71107;BME280;58763;47.982;11.516;2022-09-12T12:05:05;94195.28;;;24.36;39.01
71107;BME280;58763;47.982;11.516;2022-09-12T12:07:50;94192.03;;;24.30;37.53
71107;BME280;58763;47.982;11.516;2022-09-12T12:12:59;94196.91;;;23.91;38.28
71107;BME280;58763;47.982;11.516;2022-09-12T12:15:28;94192.50;;;24.10;38.21
71107;BME280;58763;47.982;11.516;2022-09-12T12:18:07;94191.56;;;24.25;37.93
71107;BME280;58763;47.982;11.516;2022-09-12T12:20:40;94191.59;;;24.28;37.28
71107;BME280;58763;47.982;11.516;2022-09-12T12:23:05;94188.94;;;24.35;37.52
71107;BME280;58763;47.982;11.516;2022-09-12T12:25:39;94191.31;;;24.37;37.24
71107;BME280;58763;47.982;11.516;2022-09-12T12:28:05;94188.25;;;24.42;38.11
71107;BME280;58763;47.982;11.516;2022-09-12T12:32:59;94183.66;;;24.53;35.47
71107;BME280;58763;47.982;11.516;2022-09-12T12:38:02;94175.38;;;24.53;38.03
71107;BME280;58763;47.982;11.516;2022-09-12T12:40:29;94179.72;;;24.50;39.47
71107;BME280;58763;47.982;11.516;2022-09-12T12:48:09;94174.13;;;24.47;38.71
71107;BME280;58763;47.982;11.516;2022-09-12T12:50:38;94172.56;;;24.49;38.69
71107;BME280;58763;47.982;11.516;2022-09-12T12:53:13;94171.94;;;24.59;38.05
71107;BME280;58763;47.982;11.516;2022-09-12T13:03:34;94164.31;;;24.79;37.00
71107;BME280;58763;47.982;11.516;2022-09-12T13:06:05;94157.75;;;24.64;36.94
71107;BME280;58763;47.982;11.516;2022-09-12T13:08:34;94158.22;;;24.66;38.21
71107;BME280;58763;47.982;11.516;2022-09-12T13:11:13;94161.94;;;24.51;37.25
71107;BME280;58763;47.982;11.516;2022-09-12T13:13:49;94159.97;;;24.26;37.86
71107;BME280;58763;47.982;11.516;2022-09-12T13:16:36;94152.50;;;24.52;38.28
71107;BME280;58763;47.982;11.516;2022-09-12T13:19:05;94154.81;;;24.77;38.03
71107;BME280;58763;47.982;11.516;2022-09-12T13:21:31;94141.84;;;24.54;36.74
71107;BME280;58763;47.982;11.516;2022-09-12T13:24:13;94135.59;;;24.61;35.54
71107;BME280;58763;47.982;11.516;2022-09-12T13:26:44;94132.38;;;24.55;37.50
71107;BME280;58763;47.982;11.516;2022-09-12T13:29:16;94121.03;;;24.64;37.63
71107;BME280;58763;47.982;11.516;2022-09-12T13:31:44;94128.16;;;24.65;37.03
71107;BME280;58763;47.982;11.516;2022-09-12T13:34:17;94127.16;;;24.77;36.46
71107;BME280;58763;47.982;11.516;2022-09-12T13:39:48;94121.16;;;25.04;35.64
71107;BME280;58763;47.982;11.516;2022-09-12T13:42:37;94126.09;;;25.21;34.81
71107;BME280;58763;47.982;11.516;2022-09-12T13:45:20;94131.16;;;25.46;35.92
71107;BME280;58763;47.982;11.516;2022-09-12T13:47:52;94121.38;;;25.59;36.29
71107;BME280;58763;47.982;11.516;2022-09-12T13:50:27;94124.56;;;25.61;35.01
71107;BME280;58763;47.982;11.516;2022-09-12T13:52:57;94121.16;;;25.78;34.60
71107;BME280;58763;47.982;11.516;2022-09-12T13:55:27;94116.44;;;25.82;33.54
71107;BME280;58763;47.982;11.516;2022-09-12T13:58:03;94120.47;;;25.91;33.64
71107;BME280;58763;47.982;11.516;2022-09-12T14:00:31;94116.59;;;25.99;33.42
71107;BME280;58763;47.982;11.516;2022-09-12T14:02:58;94111.41;;;25.94;33.94
71107;BME280;58763;47.982;11.516;2022-09-12T14:05:55;94118.09;;;25.90;33.45
71107;BME280;58763;47.982;11.516;2022-09-12T14:08:21;94111.78;;;25.93;34.03
71107;BME280;58763;47.982;11.516;2022-09-12T14:10:48;94112.63;;;25.97;33.00
71107;BME280;58763;47.982;11.516;2022-09-12T14:13:23;94104.94;;;25.80;33.79
71107;BME280;58763;47.982;11.516;2022-09-12T14:15:51;94100.97;;;25.77;32.52
71107;BME280;58763;47.982;11.516;2022-09-12T14:18:26;94098.13;;;25.70;32.38
71107;BME280;58763;47.982;11.516;2022-09-12T14:21:00;94100.53;;;25.72;32.37
71107;BME280;58763;47.982;11.516;2022-09-12T14:23:33;94102.13;;;25.73;34.09
71107;BME280;58763;47.982;11.516;2022-09-12T14:26:03;94100.94;;;25.37;33.08
71107;BME280;58763;47.982;11.516;2022-09-12T14:28:33;94094.81;;;25.51;32.81
71107;BME280;58763;47.982;11.516;2022-09-12T14:33:46;94091.66;;;25.56;33.91
71107;BME280;58763;47.982;11.516;2022-09-12T14:36:32;94084.97;;;25.60;33.60
71107;BME280;58763;47.982;11.516;2022-09-12T14:39:16;94080.72;;;25.70;33.70
71107;BME280;58763;47.982;11.516;2022-09-12T14:41:42;94072.28;;;25.52;34.18
71107;BME280;58763;47.982;11.516;2022-09-12T14:44:22;94081.50;;;25.67;32.61
71107;BME280;58763;47.982;11.516;2022-09-12T14:46:48;94079.38;;;25.50;33.14
71107;BME280;58763;47.982;11.516;2022-09-12T14:51:53;94075.19;;;25.70;34.21
71107;BME280;58763;47.982;11.516;2022-09-12T14:57:00;94074.78;;;25.68;34.86
71107;BME280;58763;47.982;11.516;2022-09-12T15:04:42;94079.19;;;25.76;32.10
71107;BME280;58763;47.982;11.516;2022-09-12T15:07:20;94073.25;;;25.74;33.71
71107;BME280;58763;47.982;11.516;2022-09-12T15:09:48;94071.19;;;25.64;31.88
71107;BME280;58763;47.982;11.516;2022-09-12T15:12:13;94070.16;;;25.86;32.24
71107;BME280;58763;47.982;11.516;2022-09-12T15:14:39;94066.69;;;25.96;32.99
71107;BME280;58763;47.982;11.516;2022-09-12T15:17:04;94070.75;;;26.09;33.34
71107;BME280;58763;47.982;11.516;2022-09-12T15:19:30;94066.72;;;25.99;34.52
71107;BME280;58763;47.982;11.516;2022-09-12T15:21:56;94066.97;;;25.84;35.23
71107;BME280;58763;47.982;11.516;2022-09-12T15:24:22;94061.19;;;25.52;34.50
71107;BME280;58763;47.982;11.516;2022-09-12T15:26:48;94066.41;;;25.20;35.32
71107;BME280;58763;47.982;11.516;2022-09-12T15:29:15;94065.00;;;25.00;36.18
71107;BME280;58763;47.982;11.516;2022-09-12T15:31:40;94059.63;;;24.81;35.43
71107;BME280;58763;47.982;11.516;2022-09-12T15:34:10;94057.03;;;24.32;36.50
71107;BME280;58763;47.982;11.516;2022-09-12T15:36:35;94063.53;;;24.47;38.28
71107;BME280;58763;47.982;11.516;2022-09-12T15:39:00;94062.47;;;24.55;38.34
71107;BME280;58763;47.982;11.516;2022-09-12T15:41:36;94054.34;;;24.69;37.72
71107;BME280;58763;47.982;11.516;2022-09-12T15:44:06;94057.44;;;24.64;37.90